createdAt,value
2023-02-28T00:00:24.680Z,5.98
2023-02-28T00:02:52.275Z,7.42
2023-02-28T00:05:22.964Z,8.27
2023-02-28T00:07:50.718Z,8.41
2023-02-28T00:10:21.736Z,8.70
2023-02-28T00:12:49.311Z,8.23
2023-02-28T00:15:16.930Z,7.96
2023-02-28T00:17:44.498Z,7.92
2023-02-28T00:20:12.898Z,7.93
2023-02-28T00:22:40.776Z,8.84
2023-02-28T00:25:08.690Z,7.41
2023-02-28T00:27:36.768Z,8.85
2023-02-28T00:30:05.754Z,8.90
2023-02-28T00:32:33.488Z,7.85
2023-02-28T00:35:02.275Z,8.72
2023-02-28T00:37:29.550Z,9.36
2023-02-28T00:39:57.536Z,9.44
2023-02-28T00:42:27.497Z,9.34
2023-02-28T00:44:55.234Z,9.57
2023-02-28T00:47:22.730Z,9.92
2023-02-28T00:49:50.085Z,10.16
2023-02-28T00:52:17.253Z,10.06
2023-02-28T00:54:48.209Z,7.71
2023-02-28T00:57:15.649Z,6.93
2023-02-28T00:59:42.900Z,7.29
2023-02-28T01:02:10.373Z,6.74
2023-02-28T01:04:38.130Z,6.87
2023-02-28T01:07:05.374Z,6.75
2023-02-28T01:09:32.863Z,6.04
2023-02-28T01:12:00.178Z,6.90
2023-02-28T01:14:27.421Z,7.71
2023-02-28T01:16:54.921Z,8.28
2023-02-28T01:19:22.178Z,8.43
2023-02-28T01:21:49.417Z,8.83
2023-02-28T01:24:16.893Z,8.81
2023-02-28T01:26:45.596Z,9.43
2023-02-28T01:29:12.860Z,10.09
2023-02-28T01:31:40.538Z,9.65
2023-02-28T01:34:09.198Z,9.82
2023-02-28T01:36:37.317Z,9.92
2023-02-28T01:39:04.967Z,10.00
2023-02-28T01:41:33.050Z,9.91
2023-02-28T01:44:05.984Z,10.53
2023-02-28T01:46:34.376Z,9.90
2023-02-28T01:49:03.327Z,9.61
2023-02-28T01:51:39.534Z,9.73
2023-02-28T01:54:14.491Z,9.43
2023-02-28T01:56:44.772Z,9.91
2023-02-28T01:59:13.719Z,9.56
2023-02-28T02:01:40.953Z,9.97
2023-02-28T02:04:08.456Z,8.67
2023-02-28T02:06:37.596Z,8.19
2023-02-28T02:09:05.118Z,8.34
2023-02-28T02:11:32.687Z,8.13
2023-02-28T02:14:18.336Z,8.21
2023-02-28T02:16:54.911Z,7.61
2023-02-28T02:19:40.910Z,8.43
2023-02-28T02:22:26.532Z,9.02
2023-02-28T02:25:04.564Z,10.19
2023-02-28T02:27:46.243Z,9.71
2023-02-28T02:30:29.208Z,10.16
2023-02-28T02:33:01.175Z,10.41
2023-02-28T02:35:43.802Z,9.28
2023-02-28T02:38:18.781Z,8.66
2023-02-28T02:40:53.218Z,10.45
2023-02-28T02:43:22.130Z,9.77
2023-02-28T02:45:50.948Z,10.04
2023-02-28T02:48:19.064Z,10.26
2023-02-28T02:50:47.938Z,9.98
2023-02-28T02:53:15.457Z,9.26
2023-02-28T02:55:44.793Z,10.12
2023-02-28T02:58:14.275Z,9.97
2023-02-28T03:00:47.835Z,9.19
2023-02-28T03:03:15.356Z,9.20
2023-02-28T03:05:49.641Z,9.53
2023-02-28T03:08:17.175Z,9.36
2023-02-28T03:10:47.132Z,9.50
2023-02-28T03:13:35.981Z,8.98
2023-02-28T03:16:05.243Z,9.08
2023-02-28T03:18:55.222Z,9.31
2023-02-28T03:21:28.953Z,9.18
2023-02-28T03:24:09.871Z,9.16
2023-02-28T03:26:39.482Z,9.68
2023-02-28T03:29:26.918Z,9.10
2023-02-28T03:31:56.700Z,9.53
2023-02-28T03:34:43.266Z,9.40
2023-02-28T03:37:12.606Z,9.20
2023-02-28T03:39:50.546Z,9.10
2023-02-28T03:42:28.588Z,9.60
2023-02-28T03:44:57.916Z,9.44
2023-02-28T03:47:30.212Z,9.16
2023-02-28T03:50:02.478Z,9.33
2023-02-28T03:52:32.884Z,9.67
2023-02-28T03:55:03.699Z,9.62
2023-02-28T03:57:32.007Z,9.38
2023-02-28T04:00:22.368Z,9.45
2023-02-28T04:02:53.670Z,9.48
2023-02-28T04:05:21.331Z,9.52
2023-02-28T04:07:49.331Z,9.42
2023-02-28T04:10:17.006Z,9.84
2023-02-28T04:12:44.274Z,9.83
2023-02-28T04:15:12.363Z,9.51
2023-02-28T04:17:39.950Z,9.38
2023-02-28T04:20:10.655Z,8.99
2023-02-28T04:22:38.362Z,9.55
2023-02-28T04:25:06.769Z,9.61
2023-02-28T04:27:34.122Z,9.57
2023-02-28T04:30:01.480Z,9.63
2023-02-28T04:32:28.974Z,9.58
2023-02-28T04:34:56.339Z,8.68
2023-02-28T04:37:28.846Z,9.31
2023-02-28T04:39:56.375Z,9.28
2023-02-28T04:42:23.572Z,9.43
2023-02-28T04:44:50.797Z,9.24
2023-02-28T04:47:18.469Z,9.58
2023-02-28T04:49:45.657Z,9.18
2023-02-28T04:52:14.289Z,9.33
2023-02-28T04:54:41.745Z,9.79
2023-02-28T04:57:08.921Z,9.32
2023-02-28T04:59:36.098Z,9.12
2023-02-28T05:02:07.856Z,9.45
2023-02-28T05:04:35.428Z,9.01
2023-02-28T05:07:02.995Z,9.23
2023-02-28T05:09:30.626Z,9.61
2023-02-28T05:11:57.867Z,9.63
2023-02-28T05:14:25.096Z,9.50
2023-02-28T05:17:11.185Z,9.63
2023-02-28T05:19:38.670Z,10.00
2023-02-28T05:22:05.839Z,9.96
2023-02-28T05:24:33.112Z,9.38
2023-02-28T05:27:04.424Z,9.29
2023-02-28T05:29:31.626Z,9.22
2023-02-28T05:31:58.874Z,9.33
2023-02-28T05:34:26.451Z,9.62
2023-02-28T05:36:53.688Z,9.71
2023-02-28T05:39:20.954Z,9.43
2023-02-28T05:41:48.478Z,9.39
2023-02-28T05:44:16.210Z,9.01
2023-02-28T05:46:43.487Z,8.97
2023-02-28T05:49:11.053Z,8.92
2023-02-28T05:51:40.812Z,8.63
2023-02-28T05:54:08.294Z,9.27
2023-02-28T05:56:36.488Z,8.59
2023-02-28T05:59:04.222Z,9.04
2023-02-28T06:01:32.905Z,8.97
2023-02-28T06:04:01.668Z,8.84
2023-02-28T06:06:30.103Z,8.44
2023-02-28T06:08:57.841Z,9.16
2023-02-28T06:11:28.745Z,9.32
2023-02-28T06:13:57.553Z,9.84
2023-02-28T06:16:25.396Z,9.47
2023-02-28T06:18:54.345Z,9.80
2023-02-28T06:21:21.740Z,9.43
2023-02-28T06:23:49.198Z,9.39
2023-02-28T06:26:16.758Z,10.69
2023-02-28T06:28:43.946Z,10.53
2023-02-28T06:31:12.161Z,9.99
2023-02-28T06:33:39.740Z,9.39
2023-02-28T06:36:07.723Z,8.50
2023-02-28T06:38:35.473Z,8.16
2023-02-28T06:41:02.721Z,8.57
2023-02-28T06:43:31.137Z,7.90
2023-02-28T06:45:59.904Z,8.20
2023-02-28T06:48:28.642Z,8.48
2023-02-28T06:51:02.976Z,7.39
2023-02-28T06:53:30.821Z,7.85
2023-02-28T06:55:58.141Z,9.38
2023-02-28T06:58:25.471Z,9.33
2023-02-28T07:00:53.385Z,8.64
2023-02-28T07:03:20.658Z,8.14
2023-02-28T07:05:47.988Z,9.96
2023-02-28T07:08:15.481Z,10.38
2023-02-28T07:10:42.986Z,10.09
2023-02-28T07:13:10.605Z,9.84
2023-02-28T07:15:41.174Z,9.37
2023-02-28T07:18:09.733Z,7.19
2023-02-28T07:20:37.487Z,7.62
2023-02-28T07:23:05.788Z,8.96
2023-02-28T07:25:33.428Z,8.78
2023-02-28T07:28:01.275Z,8.17
2023-02-28T07:30:28.982Z,8.61
2023-02-28T07:32:57.108Z,9.15
2023-02-28T07:35:24.490Z,9.20
2023-02-28T07:37:52.470Z,9.89
2023-02-28T07:40:19.886Z,8.75
2023-02-28T07:42:47.081Z,10.08
2023-02-28T07:45:18.406Z,9.53
2023-02-28T07:47:45.721Z,9.62
2023-02-28T07:50:14.193Z,9.88
2023-02-28T07:52:42.023Z,9.70
2023-02-28T07:55:09.624Z,9.45
2023-02-28T07:57:37.127Z,9.67
2023-02-28T08:00:06.339Z,8.21
2023-02-28T08:02:38.913Z,9.21
2023-02-28T08:05:07.669Z,9.76
2023-02-28T08:07:35.053Z,9.71
2023-02-28T08:10:02.273Z,10.29
2023-02-28T08:12:29.767Z,9.92
2023-02-28T08:14:57.205Z,9.84
2023-02-28T08:17:24.520Z,9.97
2023-02-28T08:19:52.050Z,9.29
2023-02-28T08:22:19.310Z,9.59
2023-02-28T08:24:46.733Z,9.76
2023-02-28T08:27:14.295Z,9.74
2023-02-28T08:29:41.846Z,9.73
2023-02-28T08:32:17.505Z,10.01
2023-02-28T08:34:48.311Z,9.15
2023-02-28T08:37:15.633Z,11.29
2023-02-28T08:39:42.991Z,10.26
2023-02-28T08:42:10.605Z,9.97
2023-02-28T08:44:37.846Z,10.68
2023-02-28T08:47:05.607Z,9.93
2023-02-28T08:49:33.766Z,10.57
2023-02-28T08:52:01.366Z,9.41
2023-02-28T08:54:31.722Z,10.12
2023-02-28T08:56:59.542Z,9.95
2023-02-28T08:59:26.840Z,10.35
2023-02-28T09:01:54.108Z,10.04
2023-02-28T09:04:23.387Z,9.79
2023-02-28T09:06:52.195Z,9.42
2023-02-28T09:09:20.060Z,9.92
2023-02-28T09:11:48.088Z,9.42
2023-02-28T09:14:15.826Z,9.55
2023-02-28T09:16:43.603Z,9.88
2023-02-28T09:19:13.124Z,10.08
2023-02-28T09:21:41.143Z,10.68
2023-02-28T09:24:09.155Z,10.87
2023-02-28T09:26:43.151Z,10.61
2023-02-28T09:29:17.720Z,11.06
2023-02-28T09:31:45.594Z,11.81
2023-02-28T09:34:12.912Z,11.11
2023-02-28T09:36:45.812Z,10.86
2023-02-28T09:39:16.614Z,10.40
2023-02-28T09:41:51.074Z,11.40
2023-02-28T09:44:38.163Z,11.59
2023-02-28T09:47:25.962Z,11.89
2023-02-28T09:49:53.517Z,11.27
2023-02-28T09:52:25.663Z,11.98
2023-02-28T09:54:53.376Z,11.22
2023-02-28T09:57:40.132Z,11.49
2023-02-28T10:00:35.522Z,11.54
2023-02-28T10:03:24.674Z,12.20
2023-02-28T10:06:04.644Z,11.60
2023-02-28T10:08:53.464Z,12.33
2023-02-28T10:11:23.826Z,13.05
2023-02-28T10:14:05.533Z,11.97
2023-02-28T10:16:37.244Z,12.22
2023-02-28T10:19:11.261Z,12.58
2023-02-28T10:21:47.714Z,13.66
2023-02-28T10:24:24.435Z,13.15
2023-02-28T10:26:53.770Z,12.33
2023-02-28T10:29:21.596Z,12.70
2023-02-28T10:31:49.303Z,12.76
2023-02-28T10:34:17.737Z,13.29
2023-02-28T10:36:46.367Z,12.91
2023-02-28T10:39:37.517Z,13.08
2023-02-28T10:42:05.725Z,13.24
2023-02-28T10:44:33.522Z,13.64
2023-02-28T10:47:01.260Z,14.12
2023-02-28T10:49:30.177Z,14.11
2023-02-28T10:52:00.218Z,13.87
2023-02-28T10:54:31.922Z,13.64
2023-02-28T10:57:19.654Z,14.35
2023-02-28T10:59:53.592Z,14.59
2023-02-28T11:02:37.448Z,14.19
2023-02-28T11:05:31.120Z,14.14
2023-02-28T11:08:17.772Z,13.90
2023-02-28T11:10:47.409Z,14.77
2023-02-28T11:13:20.850Z,13.68
2023-02-28T11:15:53.715Z,14.17
2023-02-28T11:18:40.311Z,14.53
2023-02-28T11:21:09.176Z,14.24
2023-02-28T11:23:38.377Z,14.74
2023-02-28T11:26:10.662Z,14.75
2023-02-28T11:28:40.937Z,14.36
2023-02-28T11:31:17.643Z,14.48
2023-02-28T11:33:52.046Z,14.78
2023-02-28T11:36:27.881Z,14.71
2023-02-28T11:39:03.489Z,15.29
2023-02-28T11:41:56.207Z,15.52
2023-02-28T11:44:56.088Z,14.44
2023-02-28T11:47:35.518Z,14.41
2023-02-28T11:50:20.338Z,14.03
2023-02-28T11:53:17.083Z,14.60
2023-02-28T11:55:55.955Z,14.64
2023-02-28T11:58:42.077Z,14.08
2023-02-28T12:01:22.960Z,15.12
2023-02-28T12:03:53.786Z,14.91
2023-02-28T12:06:27.184Z,13.52
2023-02-28T12:08:57.656Z,13.85
2023-02-28T12:11:37.191Z,15.00
2023-02-28T12:14:10.992Z,15.01
2023-02-28T12:16:47.573Z,13.68
2023-02-28T12:19:28.846Z,15.07
2023-02-28T12:22:37.776Z,14.27
2023-02-28T12:25:20.039Z,13.93
2023-02-28T12:27:47.757Z,12.95
2023-02-28T12:30:21.282Z,13.56
2023-02-28T12:32:49.824Z,12.39
2023-02-28T12:35:22.554Z,13.34
2023-02-28T12:38:02.455Z,13.81
2023-02-28T12:40:33.308Z,14.34
2023-02-28T12:43:01.745Z,14.19
2023-02-28T12:45:49.717Z,13.24
2023-02-28T12:48:20.736Z,13.25
2023-02-28T12:50:48.584Z,13.64
2023-02-28T12:53:34.270Z,14.62
2023-02-28T12:56:01.767Z,14.68
2023-02-28T12:58:39.727Z,14.53
2023-02-28T13:01:28.900Z,14.49
2023-02-28T13:04:27.309Z,14.45
2023-02-28T13:07:19.679Z,13.46
2023-02-28T13:09:56.832Z,13.76
2023-02-28T13:12:24.456Z,13.79
2023-02-28T13:14:51.654Z,12.86
2023-02-28T13:17:22.692Z,13.66
2023-02-28T13:19:53.341Z,13.68
2023-02-28T13:22:26.545Z,14.28
2023-02-28T13:24:54.726Z,14.05
2023-02-28T13:27:27.111Z,14.58
2023-02-28T13:29:55.574Z,14.82
2023-02-28T13:32:26.104Z,13.61
2023-02-28T13:34:53.451Z,14.00
2023-02-28T13:37:26.894Z,14.05
2023-02-28T13:39:57.060Z,13.59
2023-02-28T13:42:35.427Z,14.01
2023-02-28T13:45:03.030Z,13.27
2023-02-28T13:47:47.876Z,12.82
2023-02-28T13:50:25.345Z,13.15
2023-02-28T13:53:14.633Z,12.76
2023-02-28T13:55:57.160Z,12.32
2023-02-28T13:58:27.946Z,12.81
2023-02-28T14:01:21.328Z,12.38
2023-02-28T14:04:15.564Z,11.67
2023-02-28T14:06:52.289Z,11.71
2023-02-28T14:09:26.130Z,12.15
2023-02-28T14:11:54.131Z,12.26
2023-02-28T14:14:37.165Z,12.17
2023-02-28T14:17:06.905Z,12.57
2023-02-28T14:19:37.266Z,12.12
2023-02-28T14:22:33.430Z,12.39
2023-02-28T14:25:01.361Z,12.58
2023-02-28T14:27:40.799Z,12.76
2023-02-28T14:30:34.352Z,12.70
2023-02-28T14:33:23.048Z,11.24
2023-02-28T14:35:56.982Z,11.95
2023-02-28T14:38:32.405Z,12.83
2023-02-28T14:41:04.675Z,12.78
2023-02-28T14:43:32.111Z,12.79
2023-02-28T14:46:02.105Z,12.75
2023-02-28T14:48:29.761Z,11.90
2023-02-28T14:51:01.664Z,12.54
2023-02-28T14:53:35.941Z,12.51
2023-02-28T14:56:03.671Z,13.11
2023-02-28T14:58:33.637Z,11.91
2023-02-28T15:01:03.939Z,12.31
2023-02-28T15:03:37.656Z,12.30
2023-02-28T15:06:14.334Z,12.53
2023-02-28T15:08:42.243Z,12.62
2023-02-28T15:11:20.299Z,12.63
2023-02-28T15:13:50.563Z,12.58
2023-02-28T15:16:21.985Z,12.63
2023-02-28T15:18:57.239Z,12.76
2023-02-28T15:21:26.869Z,12.78
2023-02-28T15:24:01.305Z,12.72
2023-02-28T15:26:35.719Z,12.72
2023-02-28T15:29:07.375Z,12.60
2023-02-28T15:31:56.147Z,11.89
2023-02-28T15:34:44.452Z,11.84
2023-02-28T15:37:28.179Z,12.21
2023-02-28T15:39:57.275Z,12.09
2023-02-28T15:42:29.356Z,11.86
2023-02-28T15:44:58.332Z,11.93
2023-02-28T15:47:28.642Z,11.75
2023-02-28T15:50:05.511Z,12.12
2023-02-28T15:52:43.024Z,12.00
2023-02-28T15:55:22.761Z,12.17
2023-02-28T15:57:59.776Z,12.30
2023-02-28T16:00:29.783Z,12.57
2023-02-28T16:02:57.760Z,12.35
2023-02-28T16:05:34.090Z,12.94
2023-02-28T16:08:13.136Z,12.15
2023-02-28T16:10:40.909Z,12.09
2023-02-28T16:13:12.970Z,12.07
2023-02-28T16:15:44.298Z,12.34
2023-02-28T16:18:13.428Z,11.86
2023-02-28T16:20:41.291Z,12.25
2023-02-28T16:23:09.216Z,11.86
2023-02-28T16:25:45.672Z,12.31
2023-02-28T16:28:20.721Z,11.61
2023-02-28T16:30:48.561Z,11.66
2023-02-28T16:33:16.468Z,11.05
2023-02-28T16:35:44.282Z,10.95
2023-02-28T16:38:12.051Z,10.58
2023-02-28T16:40:40.165Z,11.58
2023-02-28T16:43:11.408Z,11.58
2023-02-28T16:45:39.733Z,11.34
2023-02-28T16:48:13.702Z,11.03
2023-02-28T16:50:41.660Z,11.14
2023-02-28T16:53:09.182Z,10.72
2023-02-28T16:55:37.018Z,12.08
2023-02-28T16:58:04.980Z,10.86
2023-02-28T17:00:33.798Z,10.66
2023-02-28T17:03:05.759Z,11.25
2023-02-28T17:05:37.274Z,11.78
2023-02-28T17:08:04.839Z,11.53
2023-02-28T17:10:33.068Z,11.57
2023-02-28T17:13:14.146Z,11.31
2023-02-28T17:15:43.294Z,11.44
2023-02-28T17:18:16.585Z,11.50
2023-02-28T17:20:44.455Z,11.77
2023-02-28T17:23:13.115Z,12.13
2023-02-28T17:25:41.304Z,12.04
2023-02-28T17:28:10.737Z,11.80
2023-02-28T17:30:38.979Z,11.75
2023-02-28T17:33:07.002Z,11.85
2023-02-28T17:35:35.612Z,12.12
2023-02-28T17:38:03.470Z,12.00
2023-02-28T17:40:31.498Z,12.20
2023-02-28T17:43:00.085Z,12.17
2023-02-28T17:45:28.546Z,12.28
2023-02-28T17:47:56.904Z,12.06
2023-02-28T17:50:25.167Z,12.16
2023-02-28T17:52:53.327Z,12.49
2023-02-28T17:55:21.138Z,12.16
2023-02-28T17:57:49.046Z,11.80
2023-02-28T18:00:18.853Z,12.36
2023-02-28T18:02:47.565Z,12.23
2023-02-28T18:05:15.469Z,12.25
2023-02-28T18:07:43.855Z,12.40
2023-02-28T18:10:20.384Z,12.57
2023-02-28T18:12:52.137Z,12.08
2023-02-28T18:15:22.654Z,12.30
2023-02-28T18:17:51.438Z,12.78
2023-02-28T18:20:20.076Z,12.66
2023-02-28T18:22:48.923Z,12.50
2023-02-28T18:25:18.091Z,12.03
2023-02-28T18:27:58.719Z,12.24
2023-02-28T18:30:31.836Z,12.63
2023-02-28T18:33:04.598Z,12.00
2023-02-28T18:35:36.625Z,12.27
2023-02-28T18:38:12.321Z,12.31
2023-02-28T18:40:43.640Z,12.19
2023-02-28T18:43:14.500Z,12.73
2023-02-28T18:45:43.720Z,12.22
2023-02-28T18:48:16.118Z,12.47
2023-02-28T18:50:46.928Z,12.11
2023-02-28T18:53:15.829Z,12.09
2023-02-28T18:55:45.703Z,11.82
2023-02-28T18:58:15.109Z,11.65
2023-02-28T19:00:45.055Z,11.49
2023-02-28T19:03:15.440Z,11.13
2023-02-28T19:05:45.159Z,11.13
2023-02-28T19:08:14.704Z,11.67
2023-02-28T19:10:44.201Z,11.40
2023-02-28T19:13:12.533Z,11.64
2023-02-28T19:15:41.356Z,11.94
2023-02-28T19:18:10.485Z,11.69
2023-02-28T19:20:40.169Z,11.72
2023-02-28T19:23:10.906Z,12.35
2023-02-28T19:25:42.978Z,12.30
2023-02-28T19:28:12.154Z,11.87
2023-02-28T19:30:42.856Z,11.92
2023-02-28T19:33:12.992Z,11.48
2023-02-28T19:35:43.537Z,11.88
2023-02-28T19:38:14.153Z,11.73
2023-02-28T19:40:43.189Z,11.76
2023-02-28T19:43:15.707Z,11.51
2023-02-28T19:45:46.112Z,11.40
2023-02-28T19:48:17.073Z,11.51
2023-02-28T19:50:46.714Z,11.15
2023-02-28T19:53:16.071Z,11.18
2023-02-28T19:55:48.609Z,11.35
2023-02-28T19:58:18.378Z,11.70
2023-02-28T20:00:47.991Z,11.68
2023-02-28T20:03:19.114Z,11.90
2023-02-28T20:05:48.412Z,11.90
2023-02-28T20:08:18.184Z,11.93
2023-02-28T20:10:47.470Z,11.81
2023-02-28T20:13:16.807Z,11.63
2023-02-28T20:15:51.338Z,11.68
2023-02-28T20:18:19.932Z,11.85
2023-02-28T20:20:49.062Z,11.95
2023-02-28T20:23:18.174Z,11.94
2023-02-28T20:25:50.005Z,12.19
2023-02-28T20:28:20.034Z,12.09
2023-02-28T20:30:51.576Z,12.16
2023-02-28T20:33:20.897Z,12.49
2023-02-28T20:35:53.312Z,12.24
2023-02-28T20:38:22.649Z,12.00
2023-02-28T20:40:56.364Z,11.92
2023-02-28T20:43:24.789Z,11.58
2023-02-28T20:45:58.933Z,11.87
2023-02-28T20:48:28.912Z,11.66
2023-02-28T20:50:58.982Z,11.59
2023-02-28T20:53:28.220Z,11.47
2023-02-28T20:56:18.201Z,11.62
2023-02-28T20:58:48.347Z,12.04
2023-02-28T21:01:28.108Z,12.18
2023-02-28T21:03:59.560Z,11.87
2023-02-28T21:06:31.519Z,11.56
2023-02-28T21:09:00.011Z,11.68
2023-02-28T21:11:30.082Z,11.84
2023-02-28T21:14:06.857Z,11.98
2023-02-28T21:16:37.497Z,12.40
2023-02-28T21:19:06.793Z,12.36
2023-02-28T21:21:39.978Z,12.04
2023-02-28T21:24:08.187Z,12.12
2023-02-28T21:26:35.774Z,11.92
2023-02-28T21:29:04.559Z,11.56
2023-02-28T21:31:34.192Z,11.41
2023-02-28T21:34:04.042Z,11.65
2023-02-28T21:36:35.562Z,12.03
2023-02-28T21:39:10.105Z,11.92
2023-02-28T21:41:41.641Z,11.53
2023-02-28T21:44:19.336Z,11.26
2023-02-28T21:46:49.338Z,11.18
2023-02-28T21:49:17.512Z,11.11
2023-02-28T21:51:45.014Z,11.36
2023-02-28T21:54:13.103Z,11.80
2023-02-28T21:56:40.811Z,11.78
2023-02-28T21:59:09.691Z,11.97
2023-02-28T22:01:44.443Z,12.13
2023-02-28T22:04:21.593Z,12.13
2023-02-28T22:06:54.658Z,12.60
2023-02-28T22:09:22.845Z,12.63
2023-02-28T22:11:50.691Z,12.81
2023-02-28T22:14:18.586Z,12.51
2023-02-28T22:16:52.254Z,12.66
2023-02-28T22:19:23.145Z,12.66
2023-02-28T22:21:51.697Z,12.72
2023-02-28T22:24:20.858Z,12.57
2023-02-28T22:26:49.562Z,12.67
2023-02-28T22:29:17.318Z,11.29
2023-02-28T22:31:44.801Z,11.51
2023-02-28T22:34:12.981Z,11.69
2023-02-28T22:36:42.118Z,11.92
2023-02-28T22:39:10.532Z,12.25
2023-02-28T22:41:38.970Z,12.31
2023-02-28T22:44:07.400Z,12.47
2023-02-28T22:46:35.923Z,12.44
2023-02-28T22:49:05.283Z,12.71
2023-02-28T22:51:33.403Z,13.41
2023-02-28T22:54:02.018Z,13.64
2023-02-28T22:56:30.690Z,13.47
2023-02-28T22:58:59.870Z,12.99
2023-02-28T23:01:30.593Z,12.70
2023-02-28T23:03:58.815Z,12.70
2023-02-28T23:06:34.834Z,13.05
2023-02-28T23:09:05.745Z,13.43
2023-02-28T23:11:39.792Z,12.98
2023-02-28T23:14:07.922Z,12.62
2023-02-28T23:16:37.375Z,12.58
2023-02-28T23:19:11.308Z,12.45
2023-02-28T23:21:39.616Z,12.28
2023-02-28T23:24:14.404Z,12.51
2023-02-28T23:26:44.955Z,12.23
2023-02-28T23:29:13.703Z,12.24
2023-02-28T23:31:41.384Z,12.42
2023-02-28T23:34:09.692Z,12.26
2023-02-28T23:36:47.152Z,11.85
2023-02-28T23:39:19.138Z,11.80
2023-02-28T23:41:47.233Z,11.55
2023-02-28T23:44:17.027Z,11.31
2023-02-28T23:46:46.845Z,11.48
2023-02-28T23:49:16.044Z,11.81
2023-02-28T23:51:45.032Z,11.87
2023-02-28T23:54:12.530Z,12.03
2023-02-28T23:56:39.966Z,10.96
2023-02-28T23:59:07.734Z,11.38
